Bensenville, Illinois
Current Conditions -  °F | °C
As of 6:51 PM on Saturday 25 Oct 2014 (Local Time) from KORD Reporting Station
Clear Clear  
Wind Chill: 63°   Ceiling: Unl
Heat Index: 63°   Visibility: 10mi
Dew Point: 28°   Wind: 13mph
Humidity: 27%   Direction: 290°WNW
Pressure: 29.93"   Gusts: NA
Location:  41.96°N, 87.94°W
Report Text: KORD 252351Z 29011KT 10SM CLR 17/M02 A2993 RMK AO2 SLP133 T01721022 10222 20172 53007
Loading
Personal Weather Stations






























Interactive Weather Map New forecast layout! Learn more

10-Day Weather Forecast

Advertisements
Track Severe Weather on mobile